createdAt,value
2022-08-20T00:00:10.140Z,22.30
2022-08-20T00:02:46.694Z,22.40
2022-08-20T00:05:16.873Z,22.40
2022-08-20T00:07:47.046Z,22.40
2022-08-20T00:10:16.461Z,22.40
2022-08-20T00:12:46.878Z,22.40
2022-08-20T00:15:16.452Z,22.40
2022-08-20T00:17:45.866Z,22.40
2022-08-20T00:20:16.319Z,22.40
2022-08-20T00:22:46.512Z,22.40
2022-08-20T00:25:16.045Z,22.40
2022-08-20T00:27:45.464Z,22.40
2022-08-20T00:30:15.819Z,22.40
2022-08-20T00:32:49.323Z,22.40
2022-08-20T00:35:19.351Z,22.40
2022-08-20T00:37:48.802Z,22.40
2022-08-20T00:40:22.353Z,22.50
2022-08-20T00:42:53.577Z,22.40
2022-08-20T00:45:23.022Z,22.50
2022-08-20T00:47:52.435Z,22.50
2022-08-20T00:50:23.212Z,22.50
2022-08-20T00:52:52.775Z,22.40
2022-08-20T00:55:22.906Z,22.50
2022-08-20T00:58:01.404Z,22.50
2022-08-20T01:00:33.374Z,22.50
2022-08-20T01:03:02.943Z,22.50
2022-08-20T01:05:32.404Z,22.50
2022-08-20T01:08:01.823Z,22.50
2022-08-20T01:10:33.893Z,22.50
2022-08-20T01:13:05.035Z,22.50
2022-08-20T01:15:34.533Z,22.60
2022-08-20T01:18:04.359Z,22.60
2022-08-20T01:20:35.329Z,22.50
2022-08-20T01:23:22.867Z,22.50
2022-08-20T01:25:56.356Z,22.50
2022-08-20T01:28:27.413Z,22.50
2022-08-20T01:30:57.556Z,22.60
2022-08-20T01:33:26.985Z,22.60
2022-08-20T01:35:56.783Z,22.50
2022-08-20T01:38:26.285Z,22.50
2022-08-20T01:41:14.096Z,22.50
2022-08-20T01:43:43.563Z,22.50
2022-08-20T01:46:13.144Z,22.50
2022-08-20T01:48:42.921Z,22.50
2022-08-20T01:51:14.942Z,22.50
2022-08-20T01:53:45.779Z,22.50
2022-08-20T01:56:16.492Z,22.50
2022-08-20T01:58:47.524Z,22.60
2022-08-20T02:01:46.774Z,22.60
2022-08-20T02:04:18.173Z,22.60
2022-08-20T02:06:57.179Z,22.60
2022-08-20T02:09:28.082Z,22.70
2022-08-20T02:11:58.649Z,22.70
2022-08-20T02:14:28.362Z,22.70
2022-08-20T02:16:59.657Z,22.70
2022-08-20T02:19:31.104Z,22.70
2022-08-20T02:22:01.592Z,22.70
2022-08-20T02:24:31.224Z,22.70
2022-08-20T02:27:00.730Z,22.70
2022-08-20T02:29:30.539Z,22.80
2022-08-20T02:32:25.155Z,22.80
2022-08-20T02:34:50.654Z,22.80
2022-08-20T02:37:20.367Z,22.80
2022-08-20T02:39:49.930Z,22.80
2022-08-20T02:42:19.414Z,22.80
2022-08-20T02:44:48.849Z,22.80
2022-08-20T02:47:18.624Z,22.80
2022-08-20T02:49:48.075Z,22.80
2022-08-20T02:52:17.494Z,22.80
2022-08-20T02:54:46.994Z,22.80
2022-08-20T02:57:17.175Z,22.90
2022-08-20T02:59:46.655Z,22.90
2022-08-20T03:02:16.333Z,22.90
2022-08-20T03:04:46.033Z,22.90
2022-08-20T03:07:15.923Z,22.90
2022-08-20T03:09:45.373Z,22.90
2022-08-20T03:12:15.511Z,22.90
2022-08-20T03:14:45.020Z,22.90
2022-08-20T03:17:14.684Z,23.00
2022-08-20T03:19:44.153Z,23.00
2022-08-20T03:22:13.587Z,23.00
2022-08-20T03:24:43.173Z,23.00
2022-08-20T03:27:14.475Z,23.00
2022-08-20T03:29:43.899Z,23.00
2022-08-20T03:32:13.371Z,23.10
2022-08-20T03:34:42.945Z,23.10
2022-08-20T03:37:12.846Z,23.00
2022-08-20T03:39:42.374Z,23.00
2022-08-20T03:42:11.830Z,23.10
2022-08-20T03:44:41.395Z,23.10
2022-08-20T03:47:11.007Z,23.10
2022-08-20T03:49:40.464Z,23.10
2022-08-20T03:52:10.012Z,23.10
2022-08-20T03:54:39.486Z,23.10
2022-08-20T03:57:12.846Z,23.10
2022-08-20T03:59:43.153Z,23.20
2022-08-20T04:02:13.102Z,23.20
2022-08-20T04:04:42.638Z,23.20
2022-08-20T04:07:14.945Z,23.30
2022-08-20T04:09:44.905Z,23.20
2022-08-20T04:12:14.462Z,23.20
2022-08-20T04:14:44.388Z,23.20
2022-08-20T04:17:15.321Z,23.20
2022-08-20T04:19:45.653Z,23.30
2022-08-20T04:22:15.113Z,23.30
2022-08-20T04:24:44.588Z,23.30
2022-08-20T04:27:15.934Z,23.30
2022-08-20T04:29:45.892Z,23.30
2022-08-20T04:32:15.326Z,23.30
2022-08-20T04:34:47.449Z,23.40
2022-08-20T04:37:20.289Z,23.40
2022-08-20T04:40:09.989Z,23.40
2022-08-20T04:42:39.536Z,23.40
2022-08-20T04:45:09.858Z,23.50
2022-08-20T04:47:39.371Z,23.50
2022-08-20T04:50:10.618Z,23.50
2022-08-20T04:52:40.244Z,23.60
2022-08-20T04:55:09.952Z,23.60
2022-08-20T04:57:39.512Z,23.60
2022-08-20T05:00:10.574Z,23.70
2022-08-20T05:02:40.025Z,23.70
2022-08-20T05:05:09.969Z,23.70
2022-08-20T05:07:43.632Z,23.70
2022-08-20T05:10:14.738Z,23.80
2022-08-20T05:12:44.230Z,23.80
2022-08-20T05:15:27.309Z,23.90
2022-08-20T05:17:57.902Z,23.90
2022-08-20T05:20:32.513Z,24.00
2022-08-20T05:23:02.055Z,23.90
2022-08-20T05:25:31.688Z,24.00
2022-08-20T05:28:01.874Z,24.10
2022-08-20T05:30:40.298Z,24.10
2022-08-20T05:33:10.005Z,24.10
2022-08-20T05:35:39.902Z,24.10
2022-08-20T05:38:11.433Z,24.10
2022-08-20T05:40:41.847Z,24.20
2022-08-20T05:43:11.449Z,24.20
2022-08-20T05:45:41.426Z,24.20
2022-08-20T05:48:12.619Z,24.30
2022-08-20T05:50:43.487Z,24.30
2022-08-20T05:53:13.242Z,24.30
2022-08-20T05:55:44.755Z,24.30
2022-08-20T05:58:21.890Z,24.30
2022-08-20T06:00:51.838Z,24.40
2022-08-20T06:03:39.371Z,24.40
2022-08-20T06:06:18.456Z,24.50
2022-08-20T06:08:59.200Z,24.50
2022-08-20T06:11:28.757Z,24.50
2022-08-20T06:13:58.219Z,24.60
2022-08-20T06:16:29.126Z,24.60
2022-08-20T06:18:59.703Z,24.60
2022-08-20T06:21:31.765Z,24.60
2022-08-20T06:24:02.012Z,24.70
2022-08-20T06:26:33.015Z,24.70
2022-08-20T06:29:03.235Z,24.70
2022-08-20T06:31:32.985Z,24.70
2022-08-20T06:34:03.176Z,24.70
2022-08-20T06:36:32.694Z,24.80
2022-08-20T06:39:02.144Z,24.80
2022-08-20T06:41:35.917Z,24.80
2022-08-20T06:44:06.764Z,24.90
2022-08-20T06:46:37.457Z,24.90
2022-08-20T06:49:07.526Z,24.90
2022-08-20T06:51:38.474Z,25.00
2022-08-20T06:54:10.890Z,25.00
2022-08-20T06:56:40.513Z,25.00
2022-08-20T06:59:10.046Z,25.00
2022-08-20T07:01:39.490Z,25.10
2022-08-20T07:04:09.574Z,25.20
2022-08-20T07:06:39.246Z,25.40
2022-08-20T07:09:09.315Z,25.80
2022-08-20T07:11:39.406Z,25.60
2022-08-20T07:14:08.953Z,25.50
2022-08-20T07:16:40.814Z,25.40
2022-08-20T07:19:10.421Z,25.30
2022-08-20T07:21:39.913Z,25.20
2022-08-20T07:24:10.870Z,25.40
2022-08-20T07:26:40.833Z,26.00
2022-08-20T07:29:10.390Z,26.70
2022-08-20T07:31:57.791Z,28.00
2022-08-20T07:34:27.471Z,28.70
2022-08-20T07:37:00.195Z,29.20
2022-08-20T07:39:30.074Z,29.40
2022-08-20T07:42:04.761Z,29.70
2022-08-20T07:44:34.901Z,29.60
2022-08-20T07:47:05.879Z,29.50
2022-08-20T07:49:39.502Z,29.50
2022-08-20T07:52:09.161Z,29.40
2022-08-20T07:54:39.545Z,29.40
2022-08-20T07:57:11.118Z,28.70
2022-08-20T07:59:42.007Z,28.90
2022-08-20T08:02:11.751Z,29.10
2022-08-20T08:04:41.279Z,29.10
2022-08-20T08:07:11.654Z,29.20
2022-08-20T08:09:41.077Z,29.10
2022-08-20T08:12:10.597Z,28.40
2022-08-20T08:14:40.532Z,28.00
2022-08-20T08:17:10.241Z,27.60
2022-08-20T08:19:41.823Z,27.50
2022-08-20T08:22:15.256Z,27.70
2022-08-20T08:24:57.456Z,27.70
2022-08-20T08:27:27.489Z,27.70
2022-08-20T08:29:57.063Z,27.60
2022-08-20T08:32:26.716Z,27.40
2022-08-20T08:34:56.584Z,27.20
2022-08-20T08:37:30.103Z,27.30
2022-08-20T08:40:00.521Z,27.50
2022-08-20T08:42:42.595Z,27.80
2022-08-20T08:45:12.846Z,28.00
2022-08-20T08:47:42.452Z,28.10
2022-08-20T08:50:28.641Z,28.20
2022-08-20T08:53:07.734Z,27.90
2022-08-20T08:55:40.165Z,27.70
2022-08-20T08:58:17.369Z,27.40
2022-08-20T09:00:56.447Z,27.40
2022-08-20T09:03:31.920Z,27.30
2022-08-20T09:06:01.819Z,27.20
2022-08-20T09:08:35.206Z,27.10
2022-08-20T09:11:05.608Z,27.00
2022-08-20T09:13:35.320Z,26.80
2022-08-20T09:16:04.885Z,26.70
2022-08-20T09:18:34.387Z,26.70
2022-08-20T09:21:03.810Z,26.60
2022-08-20T09:23:33.360Z,26.50
2022-08-20T09:26:02.887Z,26.40
2022-08-20T09:28:34.904Z,26.40
2022-08-20T09:31:05.001Z,26.30
2022-08-20T09:33:36.461Z,26.20
2022-08-20T09:36:31.628Z,26.20
2022-08-20T09:38:55.596Z,26.10
2022-08-20T09:41:25.075Z,26.10
2022-08-20T09:43:54.646Z,26.00
2022-08-20T09:46:27.138Z,26.00
2022-08-20T09:48:57.048Z,25.90
2022-08-20T09:51:26.620Z,25.90
2022-08-20T09:53:56.184Z,25.80
2022-08-20T09:56:26.743Z,25.80
2022-08-20T09:58:58.901Z,25.80
2022-08-20T10:01:30.520Z,25.70
2022-08-20T10:04:00.282Z,25.60
2022-08-20T10:06:31.618Z,25.60
2022-08-20T10:09:02.896Z,25.60
2022-08-20T10:11:32.785Z,25.50
2022-08-20T10:14:02.257Z,25.50
2022-08-20T10:16:31.830Z,25.50
2022-08-20T10:19:01.430Z,25.50
2022-08-20T10:21:34.304Z,25.40
2022-08-20T10:24:06.298Z,25.40
2022-08-20T10:26:35.798Z,25.40
2022-08-20T10:29:05.284Z,25.30
2022-08-20T10:31:34.769Z,25.30
2022-08-20T10:34:04.193Z,25.30
2022-08-20T10:36:33.622Z,25.30
2022-08-20T10:39:03.057Z,25.20
2022-08-20T10:41:35.170Z,25.20
2022-08-20T10:44:07.910Z,25.10
2022-08-20T10:46:37.628Z,25.10
2022-08-20T10:49:07.252Z,25.10
2022-08-20T10:51:37.129Z,25.00
2022-08-20T10:54:12.307Z,25.00
2022-08-20T10:56:42.477Z,24.90
2022-08-20T10:59:11.886Z,24.90
2022-08-20T11:01:41.482Z,24.90
2022-08-20T11:04:11.014Z,24.90
2022-08-20T11:06:40.454Z,24.80
2022-08-20T11:09:09.985Z,24.80
2022-08-20T11:11:39.430Z,24.70
2022-08-20T11:14:08.885Z,24.70
2022-08-20T11:16:38.328Z,24.60
2022-08-20T11:19:07.777Z,24.60
2022-08-20T11:21:37.209Z,24.50
2022-08-20T11:24:06.756Z,24.50
2022-08-20T11:26:36.208Z,24.50
2022-08-20T11:29:05.696Z,24.40
2022-08-20T11:31:35.191Z,24.40
2022-08-20T11:34:06.506Z,24.40
2022-08-20T11:36:38.249Z,24.30
2022-08-20T11:39:07.726Z,24.30
2022-08-20T11:41:37.243Z,24.30
2022-08-20T11:44:20.659Z,24.30
2022-08-20T11:46:51.213Z,24.20
2022-08-20T11:49:20.761Z,24.20
2022-08-20T11:51:50.399Z,24.20
2022-08-20T11:54:19.943Z,24.20
2022-08-20T11:56:50.848Z,24.10
2022-08-20T11:59:20.531Z,24.10
2022-08-20T12:02:03.294Z,24.00
2022-08-20T12:04:33.647Z,24.00
2022-08-20T12:07:13.893Z,23.90
2022-08-20T12:09:51.265Z,23.90
2022-08-20T12:12:21.784Z,23.90
2022-08-20T12:14:52.291Z,23.80
2022-08-20T12:17:25.396Z,23.80
2022-08-20T12:19:56.771Z,23.70
2022-08-20T12:22:26.305Z,23.70
2022-08-20T12:24:55.837Z,23.70
2022-08-20T12:27:27.164Z,23.70
2022-08-20T12:29:57.261Z,23.60
2022-08-20T12:32:27.200Z,23.60
2022-08-20T12:34:56.746Z,23.50
2022-08-20T12:37:26.963Z,23.50
2022-08-20T12:39:57.079Z,23.50
2022-08-20T12:42:26.767Z,23.40
2022-08-20T12:44:56.256Z,23.40
2022-08-20T12:47:26.792Z,23.40
2022-08-20T12:49:57.466Z,23.40
2022-08-20T12:52:26.979Z,23.40
2022-08-20T12:54:56.619Z,23.30
2022-08-20T12:57:35.179Z,23.30
2022-08-20T13:00:09.824Z,23.30
2022-08-20T13:02:42.673Z,23.30
2022-08-20T13:05:12.786Z,23.20
2022-08-20T13:07:42.520Z,23.20
2022-08-20T13:10:13.314Z,23.20
2022-08-20T13:12:42.773Z,23.20
2022-08-20T13:15:12.539Z,23.20
2022-08-20T13:17:42.077Z,23.20
2022-08-20T13:20:13.086Z,23.10
2022-08-20T13:22:43.353Z,23.10
2022-08-20T13:25:13.027Z,23.10
2022-08-20T13:27:43.111Z,23.10
2022-08-20T13:30:14.708Z,23.10
2022-08-20T13:32:44.325Z,23.00
2022-08-20T13:35:14.140Z,23.00
2022-08-20T13:37:43.750Z,23.00
2022-08-20T13:40:13.538Z,23.00
2022-08-20T13:42:43.193Z,23.00
2022-08-20T13:45:12.743Z,23.00
2022-08-20T13:47:42.366Z,23.00
2022-08-20T13:50:19.783Z,22.90
2022-08-20T13:52:49.305Z,23.00
2022-08-20T13:55:19.996Z,22.90
2022-08-20T13:57:49.452Z,22.90
2022-08-20T14:00:30.884Z,22.90
2022-08-20T14:03:02.175Z,22.90
2022-08-20T14:05:32.176Z,22.90
2022-08-20T14:08:14.991Z,22.80
2022-08-20T14:10:45.100Z,22.90
2022-08-20T14:13:16.687Z,22.90
2022-08-20T14:15:46.895Z,22.80
2022-08-20T14:18:16.521Z,22.80
2022-08-20T14:20:46.535Z,22.90
2022-08-20T14:23:16.183Z,22.80
2022-08-20T14:25:48.990Z,22.80
2022-08-20T14:28:19.735Z,22.80
2022-08-20T14:30:53.082Z,22.80
2022-08-20T14:33:24.007Z,22.80
2022-08-20T14:35:54.134Z,22.70
2022-08-20T14:38:23.605Z,22.80
2022-08-20T14:40:53.515Z,22.80
2022-08-20T14:43:23.335Z,22.80
2022-08-20T14:45:52.867Z,22.80
2022-08-20T14:48:22.441Z,22.80
2022-08-20T14:50:51.910Z,22.70
2022-08-20T14:53:22.152Z,22.70
2022-08-20T14:55:51.678Z,22.70
2022-08-20T14:58:21.627Z,22.70
2022-08-20T15:00:51.186Z,22.70
2022-08-20T15:03:22.132Z,22.70
2022-08-20T15:05:51.552Z,22.70
2022-08-20T15:08:20.983Z,22.70
2022-08-20T15:10:50.588Z,22.70
2022-08-20T15:13:20.061Z,22.70
2022-08-20T15:15:49.478Z,22.70
2022-08-20T15:18:19.678Z,22.70
2022-08-20T15:20:49.296Z,22.70
2022-08-20T15:23:18.836Z,22.70
2022-08-20T15:25:48.326Z,22.70
2022-08-20T15:28:17.785Z,22.70
2022-08-20T15:30:47.236Z,22.70
2022-08-20T15:33:16.798Z,22.70
2022-08-20T15:35:46.222Z,22.70
2022-08-20T15:38:15.845Z,22.70
2022-08-20T15:40:45.370Z,22.60
2022-08-20T15:43:14.797Z,22.60
2022-08-20T15:45:44.290Z,22.60
2022-08-20T15:48:15.112Z,22.60
2022-08-20T15:50:53.899Z,22.60
2022-08-20T15:53:26.213Z,22.60
2022-08-20T15:56:06.464Z,22.60
2022-08-20T15:59:02.133Z,22.60
2022-08-20T16:01:34.716Z,22.60
2022-08-20T16:04:07.739Z,22.60
2022-08-20T16:06:37.925Z,22.60
2022-08-20T16:09:25.418Z,22.60
2022-08-20T16:12:00.865Z,22.60
2022-08-20T16:14:31.295Z,22.60
2022-08-20T16:17:03.939Z,22.60
2022-08-20T16:19:37.418Z,22.60
2022-08-20T16:22:07.394Z,22.60
2022-08-20T16:24:36.958Z,22.60
2022-08-20T16:27:14.902Z,22.60
2022-08-20T16:29:52.113Z,22.60
2022-08-20T16:32:40.092Z,22.60
2022-08-20T16:35:15.565Z,22.60
2022-08-20T16:37:57.159Z,22.60
2022-08-20T16:40:38.285Z,22.60
2022-08-20T16:43:08.012Z,22.60
2022-08-20T16:45:43.993Z,22.60
2022-08-20T16:48:19.678Z,22.60
2022-08-20T16:50:51.858Z,22.50
2022-08-20T16:53:22.094Z,22.60
2022-08-20T16:55:53.935Z,22.60
2022-08-20T16:58:23.446Z,22.50
2022-08-20T17:01:05.202Z,22.50
2022-08-20T17:03:39.707Z,22.60
2022-08-20T17:06:26.911Z,22.50
2022-08-20T17:08:56.397Z,22.50
2022-08-20T17:11:27.064Z,22.50
2022-08-20T17:14:15.573Z,22.50
2022-08-20T17:16:52.169Z,22.50
2022-08-20T17:19:29.035Z,22.50
2022-08-20T17:22:08.975Z,22.50
2022-08-20T17:24:38.887Z,22.50
2022-08-20T17:27:10.226Z,22.50
2022-08-20T17:29:49.403Z,22.50
2022-08-20T17:32:18.897Z,22.50
2022-08-20T17:34:54.930Z,22.50
2022-08-20T17:37:26.063Z,22.40
2022-08-20T17:39:56.971Z,22.50
2022-08-20T17:42:27.369Z,22.50
2022-08-20T17:45:16.038Z,22.50
2022-08-20T17:47:45.587Z,22.40
2022-08-20T17:50:16.888Z,22.40
2022-08-20T17:52:50.834Z,22.50
2022-08-20T17:55:20.875Z,22.50
2022-08-20T17:57:51.213Z,22.50
2022-08-20T18:00:24.604Z,22.40
2022-08-20T18:02:55.107Z,22.40
2022-08-20T18:05:24.855Z,22.40
2022-08-20T18:07:58.542Z,22.40
2022-08-20T18:10:28.165Z,22.40
2022-08-20T18:13:27.187Z,22.50
2022-08-20T18:15:57.807Z,22.30
2022-08-20T18:18:27.337Z,22.40
2022-08-20T18:20:56.877Z,22.40
2022-08-20T18:23:42.278Z,22.40
2022-08-20T18:26:45.883Z,22.40
2022-08-20T18:29:21.788Z,22.40
2022-08-20T18:31:55.082Z,22.40
2022-08-20T18:34:44.734Z,22.40
2022-08-20T18:37:15.213Z,22.40
2022-08-20T18:39:48.447Z,22.40
2022-08-20T18:42:34.189Z,22.30
2022-08-20T18:45:03.949Z,22.30
2022-08-20T18:47:36.358Z,22.30
2022-08-20T18:50:16.380Z,22.30
2022-08-20T18:52:48.181Z,22.30
2022-08-20T18:55:40.135Z,22.30
2022-08-20T18:58:11.490Z,22.30
2022-08-20T19:00:50.398Z,22.30
2022-08-20T19:03:25.366Z,22.30
2022-08-20T19:05:57.914Z,22.30
2022-08-20T19:08:37.470Z,22.30
2022-08-20T19:11:22.227Z,22.30
2022-08-20T19:13:57.845Z,22.30
2022-08-20T19:16:29.960Z,22.30
2022-08-20T19:18:59.859Z,22.30
2022-08-20T19:21:43.425Z,22.20
2022-08-20T19:24:13.182Z,22.20
2022-08-20T19:26:43.609Z,22.20
2022-08-20T19:29:15.020Z,22.20
2022-08-20T19:31:44.611Z,22.20
2022-08-20T19:34:22.614Z,22.20
2022-08-20T19:37:10.022Z,22.20
2022-08-20T19:39:51.963Z,22.20
2022-08-20T19:42:34.937Z,22.20
2022-08-20T19:45:07.959Z,22.20
2022-08-20T19:47:48.393Z,22.20
2022-08-20T19:50:18.331Z,22.20
2022-08-20T19:52:52.763Z,22.20
2022-08-20T19:55:25.195Z,22.20
2022-08-20T19:57:59.063Z,22.10
2022-08-20T20:00:30.583Z,22.10
2022-08-20T20:03:09.220Z,22.20
2022-08-20T20:05:47.410Z,22.20
2022-08-20T20:08:16.961Z,22.20
2022-08-20T20:10:47.990Z,22.20
2022-08-20T20:13:18.310Z,22.20
2022-08-20T20:15:54.755Z,22.20
2022-08-20T20:18:26.104Z,22.10
2022-08-20T20:20:58.537Z,22.10
2022-08-20T20:23:38.785Z,22.10
2022-08-20T20:26:17.686Z,22.10
2022-08-20T20:28:50.163Z,22.10
2022-08-20T20:31:24.273Z,22.10
2022-08-20T20:33:54.932Z,22.10
2022-08-20T20:36:37.943Z,22.10
2022-08-20T20:39:14.464Z,22.00
2022-08-20T20:41:51.426Z,22.00
2022-08-20T20:44:21.230Z,22.10
2022-08-20T20:46:50.927Z,22.10
2022-08-20T20:49:24.586Z,22.10
2022-08-20T20:52:05.150Z,22.10
2022-08-20T20:54:45.460Z,22.00
2022-08-20T20:57:37.899Z,22.00
2022-08-20T21:00:12.892Z,22.00
2022-08-20T21:02:44.234Z,22.00
2022-08-20T21:05:14.633Z,22.00
2022-08-20T21:07:50.498Z,22.00
2022-08-20T21:10:21.215Z,22.00
2022-08-20T21:12:53.146Z,22.00
2022-08-20T21:15:23.431Z,22.00
2022-08-20T21:17:52.978Z,22.00
2022-08-20T21:20:22.701Z,22.00
2022-08-20T21:22:52.268Z,22.00
2022-08-20T21:25:21.782Z,21.90
2022-08-20T21:27:51.582Z,21.90
2022-08-20T21:30:21.464Z,22.00
2022-08-20T21:32:50.982Z,21.90
2022-08-20T21:35:20.543Z,21.90
2022-08-20T21:37:50.117Z,21.90
2022-08-20T21:40:21.665Z,21.90
2022-08-20T21:42:51.536Z,21.90
2022-08-20T21:45:21.119Z,21.90
2022-08-20T21:47:50.603Z,21.90
2022-08-20T21:50:20.407Z,21.80
2022-08-20T21:52:59.701Z,21.90
2022-08-20T21:55:36.250Z,21.90
2022-08-20T21:58:08.707Z,21.90
2022-08-20T22:01:04.398Z,21.90
2022-08-20T22:03:36.874Z,21.80
2022-08-20T22:06:08.663Z,21.80
2022-08-20T22:08:38.088Z,21.80
2022-08-20T22:11:08.586Z,21.90
2022-08-20T22:13:38.307Z,21.80
2022-08-20T22:16:11.655Z,21.80
2022-08-20T22:18:41.190Z,21.80
2022-08-20T22:21:12.781Z,21.80
2022-08-20T22:23:43.585Z,21.80
2022-08-20T22:26:13.164Z,21.80
2022-08-20T22:28:42.927Z,21.80
2022-08-20T22:31:12.430Z,21.80
2022-08-20T22:33:42.001Z,21.80
2022-08-20T22:36:11.511Z,21.80
2022-08-20T22:38:41.021Z,21.80
2022-08-20T22:41:10.452Z,21.80
2022-08-20T22:43:43.455Z,21.80
2022-08-20T22:46:28.824Z,21.70
2022-08-20T22:48:58.282Z,21.70
2022-08-20T22:51:32.559Z,21.80
2022-08-20T22:54:05.852Z,21.70
2022-08-20T22:56:35.288Z,21.70
2022-08-20T22:59:05.201Z,21.70
2022-08-20T23:01:37.505Z,21.70
2022-08-20T23:04:13.401Z,21.70
2022-08-20T23:06:43.068Z,21.70
2022-08-20T23:09:12.912Z,21.70
2022-08-20T23:11:42.614Z,21.70
2022-08-20T23:14:12.127Z,21.70
2022-08-20T23:16:43.263Z,21.70
2022-08-20T23:19:13.150Z,21.80
2022-08-20T23:21:42.647Z,21.80
2022-08-20T23:24:14.379Z,21.80
2022-08-20T23:26:49.778Z,21.80
2022-08-20T23:29:25.514Z,21.80
2022-08-20T23:31:56.283Z,21.80
2022-08-20T23:34:26.249Z,21.70
2022-08-20T23:36:55.733Z,21.70
2022-08-20T23:39:25.756Z,21.80
2022-08-20T23:41:55.310Z,21.80
2022-08-20T23:44:25.867Z,21.80
2022-08-20T23:46:57.413Z,21.80
2022-08-20T23:49:27.526Z,21.90
2022-08-20T23:51:57.079Z,21.90
2022-08-20T23:54:26.545Z,21.90
2022-08-20T23:56:56.965Z,21.90
2022-08-20T23:59:27.184Z,21.90
